Aérodrome :
LOGIN :

S'inscrire | Disclaimer

   EN    FR    IT 

 










Légende :    VFR   VFR Marginal   IFR   IFR Intensif   IFR Très Intensif
Visi : 
Plafond : 
>= 8 km
>= 3000ft
5 à 8 km
1000 à 3000 ft
1500m à 5 km
500 à 1000 ft
800 à 1500m
200 à 500 ft
< 800m
< 200 ft
Symboles :   Orages  Brouillard  Fortes neiges  Fortes précipitations  Vent > 20 kt
SIGMETs :   Divers  Orages  Givrage  Turbulence  Onde Orograph.  Cendres Volcan.







- Altitude de l'aérodrome : 1521 ft
- Code IATA : NCY
- Voir les cartes d'approche


LFLP - Annecy

DERNIER METAR :
  • 191200Z AUTO 32010KT 280V360 9999 SCT041 OVC048 14/10 Q1004 TEMPO 4000 SHRA BKN020TCU

METARs EXPIRÉS :
  • 191130Z AUTO 32008KT 280V350 9999 FEW037 OVC045 14/10 Q1004 TEMPO 4000 SHRA BKN020TCU
  • 191100Z AUTO 32009KT 280V350 9999 FEW038 BKN045 OVC062 14/09 Q1004 TEMPO 4000 SHRA BKN020TCU
  • 191030Z AUTO 31010KT 9999 SCT029 BKN037 BKN046 14/10 Q1005 TEMPO 4000 SHRA BKN020TCU
  • 191000Z AUTO 30008KT 260V340 9999 BKN029 BKN035 BKN054 14/10 Q1005 TEMPO BKN012
  • 190930Z AUTO 31006KT 270V340 9999 SCT025 SCT049 OVC074 14/10 Q1005 TEMPO BKN012

TAF TAF LFLP
Valide du 19 à 09h jusqu'au 20 à 09h UTC


190800Z 1909/2009 28005KT 9999 BKN030
TEMPO 1909/2009 -RA BKN012
PROB40
TEMPO 1912/2003 4000 SHRA BKN020TCU
Pas de NOTAMs connus pour ce terrain.
1 SIGMET publié pour la FIR Marseille (LFMM) :
 
Orages noyés dans la masse
LFMM SIGMET 1 VALID 191200/191400 LFPW
LFMM MARSEILLE FIR/UIR EMBD TS FCST WI N4400 E00645 - N4330 E00715 - N4245 E00615 - N4330 E00545 - N4400 E00645 TOP FL320 STNR NC=



MET'MAP, la Météo Aéronautique d'un coup d'oeil ! - Copyright ORBIFLY Décembre 2007 - Disclaimer

ORBIFLY MET'MAP TEAM :

Programmation & Développement : Alexandra Zaïnal
Conception & Développement : Baudouin d'Aumeries
Co-Programmation & Développement : Marc-Olivier Méhu
Soutien technique & logistique : Manuel Goepfert

Contact : metmap@orbifly.com




SOURCES & CREDITS :

   NOAA